sensor_id;sensor_type;location;lat;lon;timestamp;P1;durP1;ratioP1;P2;durP2;ratioP2
7753;SDS011;3921;42.266;23.122;2022-12-18T00:01:27;11.70;;;8.30;;
7753;SDS011;3921;42.266;23.122;2022-12-18T00:03:56;13.67;;;8.63;;
7753;SDS011;3921;42.266;23.122;2022-12-18T00:06:24;12.20;;;8.57;;
7753;SDS011;3921;42.266;23.122;2022-12-18T00:08:53;11.93;;;8.83;;
7753;SDS011;3921;42.266;23.122;2022-12-18T00:11:23;12.47;;;7.87;;
7753;SDS011;3921;42.266;23.122;2022-12-18T00:13:52;13.00;;;9.07;;
7753;SDS011;3921;42.266;23.122;2022-12-18T00:16:22;12.17;;;8.10;;
7753;SDS011;3921;42.266;23.122;2022-12-18T00:19:01;10.50;;;8.00;;
7753;SDS011;3921;42.266;23.122;2022-12-18T00:21:29;10.10;;;7.53;;
7753;SDS011;3921;42.266;23.122;2022-12-18T00:23:58;11.47;;;7.33;;
7753;SDS011;3921;42.266;23.122;2022-12-18T00:26:26;10.03;;;7.87;;
7753;SDS011;3921;42.266;23.122;2022-12-18T00:28:55;8.77;;;6.40;;
7753;SDS011;3921;42.266;23.122;2022-12-18T00:31:27;8.03;;;6.30;;
7753;SDS011;3921;42.266;23.122;2022-12-18T00:33:55;7.23;;;5.80;;
7753;SDS011;3921;42.266;23.122;2022-12-18T00:36:25;7.93;;;5.80;;
7753;SDS011;3921;42.266;23.122;2022-12-18T00:38:54;7.07;;;5.10;;
7753;SDS011;3921;42.266;23.122;2022-12-18T00:41:22;5.33;;;4.83;;
7753;SDS011;3921;42.266;23.122;2022-12-18T00:44:10;6.53;;;4.97;;
7753;SDS011;3921;42.266;23.122;2022-12-18T00:46:39;5.37;;;4.83;;
7753;SDS011;3921;42.266;23.122;2022-12-18T00:49:08;6.20;;;4.93;;
7753;SDS011;3921;42.266;23.122;2022-12-18T00:51:37;6.37;;;4.50;;
7753;SDS011;3921;42.266;23.122;2022-12-18T00:54:05;5.30;;;4.73;;
7753;SDS011;3921;42.266;23.122;2022-12-18T00:56:32;6.13;;;4.80;;
7753;SDS011;3921;42.266;23.122;2022-12-18T00:58:59;6.17;;;4.50;;
7753;SDS011;3921;42.266;23.122;2022-12-18T01:01:26;6.50;;;4.40;;
7753;SDS011;3921;42.266;23.122;2022-12-18T01:03:56;5.23;;;4.67;;
7753;SDS011;3921;42.266;23.122;2022-12-18T01:06:23;5.70;;;4.60;;
7753;SDS011;3921;42.266;23.122;2022-12-18T01:08:55;5.77;;;4.50;;
7753;SDS011;3921;42.266;23.122;2022-12-18T01:11:24;5.00;;;4.27;;
7753;SDS011;3921;42.266;23.122;2022-12-18T01:13:52;4.60;;;4.10;;
7753;SDS011;3921;42.266;23.122;2022-12-18T01:16:19;4.60;;;4.10;;
7753;SDS011;3921;42.266;23.122;2022-12-18T01:18:51;5.90;;;4.00;;
7753;SDS011;3921;42.266;23.122;2022-12-18T01:21:23;4.27;;;3.87;;
7753;SDS011;3921;42.266;23.122;2022-12-18T01:23:51;4.70;;;4.20;;
7753;SDS011;3921;42.266;23.122;2022-12-18T01:26:21;4.73;;;3.90;;
7753;SDS011;3921;42.266;23.122;2022-12-18T01:28:48;5.83;;;4.23;;
7753;SDS011;3921;42.266;23.122;2022-12-18T01:31:21;4.90;;;3.97;;
7753;SDS011;3921;42.266;23.122;2022-12-18T01:33:50;4.00;;;3.60;;
7753;SDS011;3921;42.266;23.122;2022-12-18T01:36:20;4.93;;;3.80;;
7753;SDS011;3921;42.266;23.122;2022-12-18T01:38:49;4.47;;;4.07;;
7753;SDS011;3921;42.266;23.122;2022-12-18T01:41:22;4.20;;;3.80;;
7753;SDS011;3921;42.266;23.122;2022-12-18T01:47:20;6.00;;;4.00;;
7753;SDS011;3921;42.266;23.122;2022-12-18T01:49:49;5.13;;;3.73;;
7753;SDS011;3921;42.266;23.122;2022-12-18T01:52:17;4.63;;;3.63;;
7753;SDS011;3921;42.266;23.122;2022-12-18T01:54:45;3.97;;;3.57;;
7753;SDS011;3921;42.266;23.122;2022-12-18T01:57:15;5.03;;;4.00;;
7753;SDS011;3921;42.266;23.122;2022-12-18T01:59:43;4.70;;;4.20;;
7753;SDS011;3921;42.266;23.122;2022-12-18T02:02:14;4.10;;;3.63;;
7753;SDS011;3921;42.266;23.122;2022-12-18T02:04:44;4.83;;;3.80;;
7753;SDS011;3921;42.266;23.122;2022-12-18T02:07:14;6.80;;;4.10;;
7753;SDS011;3921;42.266;23.122;2022-12-18T02:09:50;4.47;;;3.90;;
7753;SDS011;3921;42.266;23.122;2022-12-18T02:12:28;4.83;;;3.77;;
7753;SDS011;3921;42.266;23.122;2022-12-18T02:15:04;4.80;;;4.30;;
7753;SDS011;3921;42.266;23.122;2022-12-18T02:17:39;5.83;;;4.17;;
7753;SDS011;3921;42.266;23.122;2022-12-18T02:20:12;5.07;;;4.10;;
7753;SDS011;3921;42.266;23.122;2022-12-18T02:22:49;5.40;;;4.13;;
7753;SDS011;3921;42.266;23.122;2022-12-18T02:25:33;5.80;;;4.10;;
7753;SDS011;3921;42.266;23.122;2022-12-18T02:28:16;4.60;;;3.93;;
7753;SDS011;3921;42.266;23.122;2022-12-18T02:30:52;5.07;;;3.60;;
7753;SDS011;3921;42.266;23.122;2022-12-18T02:33:26;4.13;;;3.73;;
7753;SDS011;3921;42.266;23.122;2022-12-18T02:35:54;5.10;;;4.13;;
7753;SDS011;3921;42.266;23.122;2022-12-18T02:38:22;4.53;;;3.67;;
7753;SDS011;3921;42.266;23.122;2022-12-18T02:40:51;4.23;;;3.83;;
7753;SDS011;3921;42.266;23.122;2022-12-18T02:43:21;4.37;;;3.97;;
7753;SDS011;3921;42.266;23.122;2022-12-18T02:45:50;4.83;;;3.73;;
7753;SDS011;3921;42.266;23.122;2022-12-18T02:48:21;4.70;;;3.23;;
7753;SDS011;3921;42.266;23.122;2022-12-18T02:50:55;4.67;;;3.83;;
7753;SDS011;3921;42.266;23.122;2022-12-18T02:53:36;3.87;;;3.37;;
7753;SDS011;3921;42.266;23.122;2022-12-18T02:56:11;4.00;;;3.53;;
7753;SDS011;3921;42.266;23.122;2022-12-18T02:58:44;4.70;;;3.40;;
7753;SDS011;3921;42.266;23.122;2022-12-18T03:01:24;4.53;;;3.57;;
7753;SDS011;3921;42.266;23.122;2022-12-18T03:03:59;4.60;;;3.83;;
7753;SDS011;3921;42.266;23.122;2022-12-18T03:06:31;4.00;;;3.60;;
7753;SDS011;3921;42.266;23.122;2022-12-18T03:09:02;4.87;;;3.80;;
7753;SDS011;3921;42.266;23.122;2022-12-18T03:11:34;4.00;;;3.53;;
7753;SDS011;3921;42.266;23.122;2022-12-18T03:14:25;4.93;;;4.27;;
7753;SDS011;3921;42.266;23.122;2022-12-18T03:16:57;4.00;;;3.60;;
7753;SDS011;3921;42.266;23.122;2022-12-18T03:19:28;4.43;;;4.03;;
7753;SDS011;3921;42.266;23.122;2022-12-18T03:21:58;4.53;;;4.00;;
7753;SDS011;3921;42.266;23.122;2022-12-18T03:24:29;5.00;;;3.97;;
7753;SDS011;3921;42.266;23.122;2022-12-18T03:27:05;7.50;;;4.73;;
7753;SDS011;3921;42.266;23.122;2022-12-18T03:29:38;6.80;;;4.23;;
7753;SDS011;3921;42.266;23.122;2022-12-18T03:32:09;6.73;;;4.53;;
7753;SDS011;3921;42.266;23.122;2022-12-18T03:34:41;5.47;;;4.30;;
7753;SDS011;3921;42.266;23.122;2022-12-18T03:37:15;5.10;;;4.00;;
7753;SDS011;3921;42.266;23.122;2022-12-18T03:39:43;6.57;;;4.43;;
7753;SDS011;3921;42.266;23.122;2022-12-18T03:42:10;7.20;;;4.80;;
7753;SDS011;3921;42.266;23.122;2022-12-18T03:44:50;5.60;;;4.37;;
7753;SDS011;3921;42.266;23.122;2022-12-18T03:47:26;6.30;;;3.90;;
7753;SDS011;3921;42.266;23.122;2022-12-18T03:49:57;5.37;;;4.10;;
7753;SDS011;3921;42.266;23.122;2022-12-18T03:52:38;4.50;;;4.10;;
7753;SDS011;3921;42.266;23.122;2022-12-18T03:55:09;4.63;;;4.10;;
7753;SDS011;3921;42.266;23.122;2022-12-18T03:57:41;5.27;;;4.30;;
7753;SDS011;3921;42.266;23.122;2022-12-18T04:00:12;5.07;;;4.23;;
7753;SDS011;3921;42.266;23.122;2022-12-18T04:02:42;4.50;;;3.90;;
7753;SDS011;3921;42.266;23.122;2022-12-18T04:05:18;4.47;;;3.53;;
7753;SDS011;3921;42.266;23.122;2022-12-18T04:07:47;6.67;;;3.80;;
7753;SDS011;3921;42.266;23.122;2022-12-18T04:10:17;5.70;;;3.93;;
7753;SDS011;3921;42.266;23.122;2022-12-18T04:12:44;4.03;;;3.30;;
7753;SDS011;3921;42.266;23.122;2022-12-18T04:15:15;4.13;;;3.60;;
7753;SDS011;3921;42.266;23.122;2022-12-18T04:17:45;4.53;;;3.63;;
7753;SDS011;3921;42.266;23.122;2022-12-18T04:20:16;4.10;;;3.50;;
7753;SDS011;3921;42.266;23.122;2022-12-18T04:22:44;4.70;;;3.67;;
7753;SDS011;3921;42.266;23.122;2022-12-18T04:25:13;3.93;;;3.53;;
7753;SDS011;3921;42.266;23.122;2022-12-18T04:27:40;4.17;;;3.47;;
7753;SDS011;3921;42.266;23.122;2022-12-18T04:30:10;4.73;;;3.87;;
7753;SDS011;3921;42.266;23.122;2022-12-18T04:32:40;3.23;;;2.93;;
7753;SDS011;3921;42.266;23.122;2022-12-18T04:35:10;5.10;;;3.30;;
7753;SDS011;3921;42.266;23.122;2022-12-18T04:37:37;3.30;;;3.00;;
7753;SDS011;3921;42.266;23.122;2022-12-18T04:40:10;3.67;;;3.30;;
7753;SDS011;3921;42.266;23.122;2022-12-18T04:42:38;9.30;;;3.73;;
7753;SDS011;3921;42.266;23.122;2022-12-18T04:45:11;5.00;;;3.23;;
7753;SDS011;3921;42.266;23.122;2022-12-18T04:47:44;4.50;;;3.33;;
7753;SDS011;3921;42.266;23.122;2022-12-18T04:50:11;4.53;;;3.33;;
7753;SDS011;3921;42.266;23.122;2022-12-18T04:52:40;3.97;;;3.50;;
7753;SDS011;3921;42.266;23.122;2022-12-18T04:55:09;4.63;;;3.17;;
7753;SDS011;3921;42.266;23.122;2022-12-18T04:57:38;3.33;;;3.03;;
7753;SDS011;3921;42.266;23.122;2022-12-18T05:00:09;4.10;;;3.50;;
7753;SDS011;3921;42.266;23.122;2022-12-18T05:05:29;3.77;;;3.13;;
7753;SDS011;3921;42.266;23.122;2022-12-18T05:08:02;3.20;;;2.90;;
7753;SDS011;3921;42.266;23.122;2022-12-18T05:10:31;3.50;;;3.20;;
7753;SDS011;3921;42.266;23.122;2022-12-18T05:13:06;5.53;;;3.50;;
7753;SDS011;3921;42.266;23.122;2022-12-18T05:15:39;3.70;;;3.30;;
7753;SDS011;3921;42.266;23.122;2022-12-18T05:18:08;5.10;;;3.80;;
7753;SDS011;3921;42.266;23.122;2022-12-18T05:20:38;5.53;;;3.53;;
7753;SDS011;3921;42.266;23.122;2022-12-18T05:23:11;4.43;;;3.77;;
7753;SDS011;3921;42.266;23.122;2022-12-18T05:25:38;4.77;;;3.60;;
7753;SDS011;3921;42.266;23.122;2022-12-18T05:28:10;4.57;;;3.30;;
7753;SDS011;3921;42.266;23.122;2022-12-18T05:30:41;3.73;;;3.43;;
7753;SDS011;3921;42.266;23.122;2022-12-18T05:33:13;4.27;;;3.63;;
7753;SDS011;3921;42.266;23.122;2022-12-18T05:35:52;4.13;;;3.57;;
7753;SDS011;3921;42.266;23.122;2022-12-18T05:38:40;4.20;;;3.80;;
7753;SDS011;3921;42.266;23.122;2022-12-18T05:41:21;4.40;;;3.70;;
7753;SDS011;3921;42.266;23.122;2022-12-18T05:43:55;6.03;;;4.00;;
7753;SDS011;3921;42.266;23.122;2022-12-18T05:49:25;6.30;;;4.80;;
7753;SDS011;3921;42.266;23.122;2022-12-18T05:51:55;5.07;;;3.60;;
7753;SDS011;3921;42.266;23.122;2022-12-18T05:54:23;4.73;;;4.13;;
7753;SDS011;3921;42.266;23.122;2022-12-18T05:56:51;4.30;;;3.87;;
7753;SDS011;3921;42.266;23.122;2022-12-18T05:59:18;5.37;;;3.90;;
7753;SDS011;3921;42.266;23.122;2022-12-18T06:01:45;5.10;;;4.13;;
7753;SDS011;3921;42.266;23.122;2022-12-18T06:04:13;4.13;;;3.73;;
7753;SDS011;3921;42.266;23.122;2022-12-18T06:06:44;4.87;;;3.90;;
7753;SDS011;3921;42.266;23.122;2022-12-18T06:09:13;4.90;;;3.53;;
7753;SDS011;3921;42.266;23.122;2022-12-18T06:11:40;4.53;;;3.77;;
7753;SDS011;3921;42.266;23.122;2022-12-18T06:14:08;4.83;;;4.10;;
7753;SDS011;3921;42.266;23.122;2022-12-18T06:16:36;5.03;;;3.80;;
7753;SDS011;3921;42.266;23.122;2022-12-18T06:19:04;7.10;;;4.20;;
7753;SDS011;3921;42.266;23.122;2022-12-18T06:21:32;4.60;;;4.10;;
7753;SDS011;3921;42.266;23.122;2022-12-18T06:24:00;4.93;;;4.13;;
7753;SDS011;3921;42.266;23.122;2022-12-18T06:26:27;4.67;;;4.07;;
7753;SDS011;3921;42.266;23.122;2022-12-18T06:28:54;5.43;;;4.13;;
7753;SDS011;3921;42.266;23.122;2022-12-18T06:31:21;5.43;;;4.17;;
7753;SDS011;3921;42.266;23.122;2022-12-18T06:33:48;4.43;;;3.83;;
7753;SDS011;3921;42.266;23.122;2022-12-18T06:36:15;5.60;;;4.63;;
7753;SDS011;3921;42.266;23.122;2022-12-18T06:38:43;7.10;;;4.33;;
7753;SDS011;3921;42.266;23.122;2022-12-18T06:41:13;4.93;;;4.40;;
7753;SDS011;3921;42.266;23.122;2022-12-18T06:43:41;7.40;;;4.80;;
7753;SDS011;3921;42.266;23.122;2022-12-18T06:46:08;7.03;;;5.07;;
7753;SDS011;3921;42.266;23.122;2022-12-18T06:48:36;6.90;;;4.77;;
7753;SDS011;3921;42.266;23.122;2022-12-18T06:51:03;7.23;;;5.00;;
7753;SDS011;3921;42.266;23.122;2022-12-18T06:53:31;8.23;;;4.87;;
7753;SDS011;3921;42.266;23.122;2022-12-18T06:56:00;7.93;;;4.93;;
7753;SDS011;3921;42.266;23.122;2022-12-18T06:58:34;8.33;;;5.97;;
7753;SDS011;3921;42.266;23.122;2022-12-18T07:01:01;9.50;;;5.77;;
7753;SDS011;3921;42.266;23.122;2022-12-18T07:03:29;6.23;;;4.53;;
7753;SDS011;3921;42.266;23.122;2022-12-18T07:05:56;6.87;;;5.07;;
7753;SDS011;3921;42.266;23.122;2022-12-18T07:08:24;7.67;;;5.27;;
7753;SDS011;3921;42.266;23.122;2022-12-18T07:10:51;8.37;;;4.93;;
7753;SDS011;3921;42.266;23.122;2022-12-18T07:13:19;7.53;;;5.63;;
7753;SDS011;3921;42.266;23.122;2022-12-18T07:15:47;7.97;;;5.90;;
7753;SDS011;3921;42.266;23.122;2022-12-18T07:18:14;6.57;;;5.30;;
7753;SDS011;3921;42.266;23.122;2022-12-18T07:20:41;7.63;;;5.37;;
7753;SDS011;3921;42.266;23.122;2022-12-18T07:23:09;7.70;;;5.53;;
7753;SDS011;3921;42.266;23.122;2022-12-18T07:25:36;10.17;;;6.07;;
7753;SDS011;3921;42.266;23.122;2022-12-18T07:28:04;9.37;;;6.50;;
7753;SDS011;3921;42.266;23.122;2022-12-18T07:30:31;7.33;;;5.27;;
7753;SDS011;3921;42.266;23.122;2022-12-18T07:33:01;7.30;;;5.63;;
7753;SDS011;3921;42.266;23.122;2022-12-18T07:35:28;9.57;;;5.90;;
7753;SDS011;3921;42.266;23.122;2022-12-18T07:37:55;8.03;;;6.10;;
7753;SDS011;3921;42.266;23.122;2022-12-18T07:40:22;8.93;;;6.37;;
7753;SDS011;3921;42.266;23.122;2022-12-18T07:42:49;8.83;;;6.10;;
7753;SDS011;3921;42.266;23.122;2022-12-18T07:45:16;11.40;;;6.53;;
7753;SDS011;3921;42.266;23.122;2022-12-18T07:47:43;9.63;;;6.70;;
7753;SDS011;3921;42.266;23.122;2022-12-18T07:50:11;9.20;;;6.83;;
7753;SDS011;3921;42.266;23.122;2022-12-18T07:52:39;12.30;;;7.67;;
7753;SDS011;3921;42.266;23.122;2022-12-18T07:55:06;10.17;;;7.03;;
7753;SDS011;3921;42.266;23.122;2022-12-18T07:57:34;9.80;;;6.67;;
7753;SDS011;3921;42.266;23.122;2022-12-18T08:00:01;9.03;;;6.87;;
7753;SDS011;3921;42.266;23.122;2022-12-18T08:02:30;12.37;;;7.90;;
7753;SDS011;3921;42.266;23.122;2022-12-18T08:04:57;10.33;;;7.20;;
7753;SDS011;3921;42.266;23.122;2022-12-18T08:07:25;13.33;;;8.10;;
7753;SDS011;3921;42.266;23.122;2022-12-18T08:09:52;14.67;;;11.33;;
7753;SDS011;3921;42.266;23.122;2022-12-18T08:12:19;22.17;;;15.10;;
7753;SDS011;3921;42.266;23.122;2022-12-18T08:14:46;24.57;;;14.00;;
7753;SDS011;3921;42.266;23.122;2022-12-18T08:17:13;14.67;;;10.00;;
7753;SDS011;3921;42.266;23.122;2022-12-18T08:19:40;14.40;;;10.27;;
7753;SDS011;3921;42.266;23.122;2022-12-18T08:22:07;16.10;;;10.03;;
7753;SDS011;3921;42.266;23.122;2022-12-18T08:24:36;16.03;;;10.43;;
7753;SDS011;3921;42.266;23.122;2022-12-18T08:27:03;14.27;;;10.87;;
7753;SDS011;3921;42.266;23.122;2022-12-18T08:29:30;12.40;;;8.67;;
7753;SDS011;3921;42.266;23.122;2022-12-18T08:31:59;12.63;;;8.60;;
7753;SDS011;3921;42.266;23.122;2022-12-18T08:34:28;11.37;;;7.87;;
7753;SDS011;3921;42.266;23.122;2022-12-18T08:37:13;11.30;;;8.83;;
7753;SDS011;3921;42.266;23.122;2022-12-18T08:45:52;14.03;;;9.67;;
7753;SDS011;3921;42.266;23.122;2022-12-18T08:48:24;17.73;;;11.53;;
7753;SDS011;3921;42.266;23.122;2022-12-18T08:51:17;20.93;;;13.17;;
7753;SDS011;3921;42.266;23.122;2022-12-18T08:53:56;16.77;;;11.27;;
7753;SDS011;3921;42.266;23.122;2022-12-18T08:56:29;17.00;;;11.13;;
7753;SDS011;3921;42.266;23.122;2022-12-18T09:02:18;12.97;;;9.10;;
7753;SDS011;3921;42.266;23.122;2022-12-18T09:04:47;16.27;;;11.70;;
7753;SDS011;3921;42.266;23.122;2022-12-18T09:07:14;14.63;;;10.13;;
7753;SDS011;3921;42.266;23.122;2022-12-18T09:09:42;15.53;;;10.70;;
7753;SDS011;3921;42.266;23.122;2022-12-18T09:12:09;16.67;;;10.00;;
7753;SDS011;3921;42.266;23.122;2022-12-18T09:14:37;15.03;;;8.93;;
7753;SDS011;3921;42.266;23.122;2022-12-18T09:17:04;17.97;;;9.80;;
7753;SDS011;3921;42.266;23.122;2022-12-18T09:19:33;11.87;;;8.20;;
7753;SDS011;3921;42.266;23.122;2022-12-18T09:22:01;64.37;;;28.67;;
7753;SDS011;3921;42.266;23.122;2022-12-18T09:24:30;33.87;;;21.27;;
7753;SDS011;3921;42.266;23.122;2022-12-18T09:27:00;14.90;;;10.03;;
7753;SDS011;3921;42.266;23.122;2022-12-18T09:29:32;17.07;;;10.50;;
7753;SDS011;3921;42.266;23.122;2022-12-18T09:32:06;14.97;;;10.77;;
7753;SDS011;3921;42.266;23.122;2022-12-18T09:34:38;13.67;;;9.17;;
7753;SDS011;3921;42.266;23.122;2022-12-18T09:37:05;18.30;;;10.97;;
7753;SDS011;3921;42.266;23.122;2022-12-18T09:39:33;22.43;;;14.03;;
7753;SDS011;3921;42.266;23.122;2022-12-18T09:42:08;22.10;;;13.47;;
7753;SDS011;3921;42.266;23.122;2022-12-18T09:44:43;24.80;;;14.37;;
7753;SDS011;3921;42.266;23.122;2022-12-18T09:53:45;19.33;;;11.23;;
7753;SDS011;3921;42.266;23.122;2022-12-18T10:08:04;16.10;;;9.60;;
7753;SDS011;3921;42.266;23.122;2022-12-18T10:17:10;15.10;;;10.50;;
7753;SDS011;3921;42.266;23.122;2022-12-18T10:20:09;14.67;;;9.50;;
7753;SDS011;3921;42.266;23.122;2022-12-18T10:22:46;14.47;;;10.70;;
7753;SDS011;3921;42.266;23.122;2022-12-18T10:25:25;15.07;;;9.93;;
7753;SDS011;3921;42.266;23.122;2022-12-18T10:28:00;14.70;;;9.90;;
7753;SDS011;3921;42.266;23.122;2022-12-18T10:30:41;14.03;;;10.40;;
7753;SDS011;3921;42.266;23.122;2022-12-18T10:33:18;16.70;;;10.27;;
7753;SDS011;3921;42.266;23.122;2022-12-18T10:36:07;15.93;;;9.60;;
7753;SDS011;3921;42.266;23.122;2022-12-18T10:38:35;13.77;;;9.83;;
7753;SDS011;3921;42.266;23.122;2022-12-18T10:41:03;13.97;;;9.73;;
7753;SDS011;3921;42.266;23.122;2022-12-18T10:43:35;14.27;;;10.43;;
7753;SDS011;3921;42.266;23.122;2022-12-18T10:46:14;15.03;;;9.63;;
7753;SDS011;3921;42.266;23.122;2022-12-18T10:48:53;16.07;;;10.03;;
7753;SDS011;3921;42.266;23.122;2022-12-18T10:51:26;15.10;;;9.30;;
7753;SDS011;3921;42.266;23.122;2022-12-18T10:53:56;11.80;;;8.17;;
7753;SDS011;3921;42.266;23.122;2022-12-18T10:56:27;13.13;;;8.27;;
7753;SDS011;3921;42.266;23.122;2022-12-18T10:58:58;14.90;;;9.53;;
7753;SDS011;3921;42.266;23.122;2022-12-18T11:01:33;13.73;;;9.07;;
7753;SDS011;3921;42.266;23.122;2022-12-18T11:04:16;14.37;;;9.17;;
7753;SDS011;3921;42.266;23.122;2022-12-18T11:06:52;14.50;;;9.23;;
7753;SDS011;3921;42.266;23.122;2022-12-18T11:09:33;13.50;;;8.57;;
7753;SDS011;3921;42.266;23.122;2022-12-18T11:12:16;14.23;;;9.33;;
7753;SDS011;3921;42.266;23.122;2022-12-18T11:14:46;15.03;;;9.80;;
7753;SDS011;3921;42.266;23.122;2022-12-18T11:17:19;20.00;;;11.90;;
7753;SDS011;3921;42.266;23.122;2022-12-18T11:19:52;15.80;;;10.87;;
7753;SDS011;3921;42.266;23.122;2022-12-18T11:22:24;17.63;;;11.20;;
7753;SDS011;3921;42.266;23.122;2022-12-18T11:25:17;16.53;;;10.13;;
7753;SDS011;3921;42.266;23.122;2022-12-18T11:27:50;15.10;;;10.13;;
7753;SDS011;3921;42.266;23.122;2022-12-18T11:30:23;13.37;;;9.70;;
7753;SDS011;3921;42.266;23.122;2022-12-18T11:33:10;15.83;;;10.23;;
7753;SDS011;3921;42.266;23.122;2022-12-18T11:35:43;13.17;;;9.13;;
7753;SDS011;3921;42.266;23.122;2022-12-18T11:38:17;11.33;;;8.23;;
7753;SDS011;3921;42.266;23.122;2022-12-18T11:40:56;11.27;;;7.93;;
7753;SDS011;3921;42.266;23.122;2022-12-18T11:43:30;12.87;;;9.07;;
7753;SDS011;3921;42.266;23.122;2022-12-18T11:46:05;22.80;;;13.83;;
7753;SDS011;3921;42.266;23.122;2022-12-18T11:51:45;12.27;;;9.20;;
7753;SDS011;3921;42.266;23.122;2022-12-18T11:54:18;11.77;;;8.43;;
7753;SDS011;3921;42.266;23.122;2022-12-18T11:56:55;14.73;;;9.23;;
7753;SDS011;3921;42.266;23.122;2022-12-18T12:08:49;16.27;;;10.10;;
7753;SDS011;3921;42.266;23.122;2022-12-18T12:11:34;17.57;;;10.80;;
7753;SDS011;3921;42.266;23.122;2022-12-18T12:14:23;19.57;;;11.50;;
7753;SDS011;3921;42.266;23.122;2022-12-18T12:17:04;21.33;;;12.57;;
7753;SDS011;3921;42.266;23.122;2022-12-18T12:19:41;19.20;;;12.30;;
7753;SDS011;3921;42.266;23.122;2022-12-18T12:22:17;20.97;;;13.20;;
7753;SDS011;3921;42.266;23.122;2022-12-18T12:27:54;16.70;;;11.07;;
7753;SDS011;3921;42.266;23.122;2022-12-18T12:30:33;23.40;;;13.73;;
7753;SDS011;3921;42.266;23.122;2022-12-18T12:33:14;15.53;;;10.30;;
7753;SDS011;3921;42.266;23.122;2022-12-18T12:35:52;19.17;;;11.90;;
7753;SDS011;3921;42.266;23.122;2022-12-18T12:38:28;15.90;;;11.07;;
7753;SDS011;3921;42.266;23.122;2022-12-18T12:41:03;17.43;;;11.43;;
7753;SDS011;3921;42.266;23.122;2022-12-18T12:43:52;17.67;;;11.03;;
7753;SDS011;3921;42.266;23.122;2022-12-18T12:46:23;20.07;;;11.40;;
7753;SDS011;3921;42.266;23.122;2022-12-18T12:48:53;19.73;;;11.63;;
7753;SDS011;3921;42.266;23.122;2022-12-18T12:51:24;21.80;;;12.20;;
7753;SDS011;3921;42.266;23.122;2022-12-18T12:53:54;19.27;;;11.60;;
7753;SDS011;3921;42.266;23.122;2022-12-18T12:56:27;28.47;;;14.43;;
7753;SDS011;3921;42.266;23.122;2022-12-18T12:59:15;17.43;;;10.40;;
7753;SDS011;3921;42.266;23.122;2022-12-18T13:01:49;15.60;;;9.77;;
7753;SDS011;3921;42.266;23.122;2022-12-18T13:04:29;16.30;;;10.17;;
7753;SDS011;3921;42.266;23.122;2022-12-18T13:07:04;17.23;;;10.83;;
7753;SDS011;3921;42.266;23.122;2022-12-18T13:12:59;22.50;;;12.37;;
7753;SDS011;3921;42.266;23.122;2022-12-18T13:15:31;20.93;;;12.13;;
7753;SDS011;3921;42.266;23.122;2022-12-18T13:18:14;22.10;;;12.73;;
7753;SDS011;3921;42.266;23.122;2022-12-18T13:20:44;23.40;;;12.23;;
7753;SDS011;3921;42.266;23.122;2022-12-18T13:23:19;23.30;;;12.20;;
7753;SDS011;3921;42.266;23.122;2022-12-18T13:25:54;22.50;;;12.63;;
7753;SDS011;3921;42.266;23.122;2022-12-18T13:28:48;22.20;;;11.17;;
7753;SDS011;3921;42.266;23.122;2022-12-18T13:34:20;16.87;;;9.80;;
7753;SDS011;3921;42.266;23.122;2022-12-18T13:36:53;18.47;;;10.10;;
7753;SDS011;3921;42.266;23.122;2022-12-18T13:39:44;14.97;;;9.70;;
7753;SDS011;3921;42.266;23.122;2022-12-18T13:49:00;16.10;;;8.90;;
7753;SDS011;3921;42.266;23.122;2022-12-18T13:51:31;18.77;;;10.43;;
7753;SDS011;3921;42.266;23.122;2022-12-18T13:54:30;14.27;;;9.03;;
7753;SDS011;3921;42.266;23.122;2022-12-18T14:00:43;14.80;;;8.13;;
7753;SDS011;3921;42.266;23.122;2022-12-18T14:13:14;19.27;;;10.77;;
7753;SDS011;3921;42.266;23.122;2022-12-18T14:15:54;14.53;;;8.87;;
